Johnson, Nebraska
Current Conditions -  °F | °C
As of 8:35 AM on Tuesday 27 Jan 2015 (Local Time) from KAFK Reporting Station
Clear Clear  
Wind Chill: 31°   Ceiling: Unl
Heat Index: 31°   Visibility: 10mi
Dew Point: 30°   Wind: 0mph
Humidity: 97%   Direction: NA
Pressure: 30.13"   Gusts: NA
Location:  40.41°N, 96°W
Report Text: KAFK 271435Z AUTO 00000KT 10SM CLR M01/M01 A3013 RMK AO2 T10061010
Loading
Personal Weather Stations






























Interactive Weather Map New forecast layout! Learn more

10-Day Weather Forecast

Advertisements
Track Severe Weather on mobile